Laniel, Canada
Current Conditions -  °F | °C
As of 10:00 AM on Friday 31 Oct 2014 (Local Time) from CYYB Reporting Station
Light Snow Light Snow  
Wind Chill: 18°   Ceiling: 1300
Heat Index: 28°   Visibility: 1.5mi
Dew Point: 28°   Wind: 12mph
Humidity: 100%   Direction: 50°NE
Pressure: 30.04"   Gusts: 20mph
Location:  47.03°N, 79.27°W
Report Text: CYYB 311400Z 05010G17KT 1 1/2SM -SN SCT008 OVC013 M02/M02 A3004 RMK SF4SC4 SLP190
Loading
Personal Weather Stations






























Interactive Weather Map
Tropical Storm Tracking
New forecast layout! Learn more

10-Day Weather Forecast

Advertisements
Track Severe Weather on mobile